createdAt,value
2023-06-03T00:02:43.234Z,55.50
2023-06-03T00:07:45.991Z,55.80
2023-06-03T00:12:48.616Z,56.00
2023-06-03T00:17:51.193Z,56.40
2023-06-03T00:22:53.579Z,57.40
2023-06-03T00:27:56.137Z,57.70
2023-06-03T00:32:58.498Z,57.80
2023-06-03T00:38:01.052Z,58.10
2023-06-03T00:43:03.337Z,59.00
2023-06-03T00:48:06.334Z,59.70
2023-06-03T00:53:09.073Z,60.40
2023-06-03T00:58:12.176Z,61.30
2023-06-03T01:03:16.110Z,61.70
2023-06-03T01:08:47.028Z,62.90
2023-06-03T01:13:56.756Z,63.70
2023-06-03T01:19:02.120Z,62.50
2023-06-03T01:24:04.805Z,62.80
2023-06-03T01:29:07.104Z,63.70
2023-06-03T01:34:09.413Z,65.00
2023-06-03T01:39:12.635Z,66.30
2023-06-03T01:44:15.485Z,67.20
2023-06-03T01:49:19.854Z,67.10
2023-06-03T01:54:26.500Z,68.00
2023-06-03T01:59:29.587Z,68.00
2023-06-03T02:04:32.923Z,68.20
2023-06-03T02:09:35.544Z,68.80
2023-06-03T02:14:38.978Z,68.20
2023-06-03T02:19:41.938Z,68.20
2023-06-03T02:24:44.714Z,68.90
2023-06-03T02:29:53.904Z,69.70
2023-06-03T02:34:56.342Z,70.70
2023-06-03T02:39:58.724Z,70.80
2023-06-03T02:45:01.032Z,71.70
2023-06-03T02:50:03.490Z,72.60
2023-06-03T02:55:08.926Z,72.40
2023-06-03T03:00:12.447Z,72.90
2023-06-03T03:05:14.836Z,73.20
2023-06-03T03:10:17.634Z,73.50
2023-06-03T03:15:21.150Z,74.20
2023-06-03T03:20:23.820Z,74.80
2023-06-03T03:25:26.384Z,75.10
2023-06-03T03:30:28.659Z,75.40
2023-06-03T03:35:31.430Z,76.20
2023-06-03T03:40:38.036Z,76.50
2023-06-03T03:45:41.093Z,77.60
2023-06-03T03:50:50.448Z,77.80
2023-06-03T03:55:59.206Z,77.80
2023-06-03T04:01:16.357Z,78.70
2023-06-03T04:06:37.772Z,79.00
2023-06-03T04:11:44.885Z,79.20
2023-06-03T04:16:59.848Z,77.90
2023-06-03T04:22:11.316Z,77.70
2023-06-03T04:27:15.510Z,77.60
2023-06-03T04:32:19.074Z,77.00
2023-06-03T04:37:23.405Z,76.80
2023-06-03T04:42:27.745Z,76.70
2023-06-03T04:47:32.579Z,74.20
2023-06-03T04:52:36.683Z,73.20
2023-06-03T04:57:41.382Z,73.30
2023-06-03T05:02:56.863Z,73.00
2023-06-03T05:08:02.696Z,73.10
2023-06-03T05:13:07.441Z,71.80
2023-06-03T05:18:10.167Z,71.10
2023-06-03T05:23:13.452Z,71.00
2023-06-03T05:28:16.087Z,71.40
2023-06-03T05:33:29.300Z,70.80
2023-06-03T05:38:37.925Z,70.20
2023-06-03T05:43:42.717Z,68.80
2023-06-03T05:48:45.622Z,68.00
2023-06-03T05:53:48.256Z,68.40
2023-06-03T05:58:54.808Z,68.40
2023-06-03T06:03:59.563Z,65.50
2023-06-03T06:09:04.030Z,65.40
2023-06-03T06:14:07.197Z,61.10
2023-06-03T06:19:10.341Z,59.80
2023-06-03T06:24:14.579Z,61.10
2023-06-03T06:29:17.755Z,58.40
2023-06-03T06:34:20.948Z,56.20
2023-06-03T06:39:35.752Z,56.40
2023-06-03T06:44:49.157Z,56.80
2023-06-03T06:49:53.815Z,55.90
2023-06-03T06:54:57.246Z,54.70
2023-06-03T07:00:01.080Z,53.40
2023-06-03T07:05:05.780Z,54.90
2023-06-03T07:10:08.766Z,53.20
2023-06-03T07:15:12.482Z,51.30
2023-06-03T07:20:21.403Z,53.80
2023-06-03T07:25:48.013Z,52.70
2023-06-03T07:30:50.705Z,50.90
2023-06-03T07:35:55.349Z,51.60
2023-06-03T07:40:58.431Z,51.30
2023-06-03T07:46:10.578Z,50.40
2023-06-03T07:51:14.368Z,51.70
2023-06-03T07:56:16.713Z,51.40
2023-06-03T08:01:19.461Z,51.20
2023-06-03T08:06:27.559Z,50.30
2023-06-03T08:11:31.841Z,49.10
2023-06-03T08:16:36.871Z,49.20
2023-06-03T08:21:40.517Z,47.40
2023-06-03T08:26:45.940Z,48.60
2023-06-03T08:31:48.426Z,46.90
2023-06-03T08:36:51.209Z,46.00
2023-06-03T08:41:58.026Z,46.20
2023-06-03T08:47:34.088Z,46.30
2023-06-03T08:52:39.589Z,46.00
2023-06-03T08:57:48.756Z,47.30
2023-06-03T09:02:53.047Z,45.10
2023-06-03T09:07:56.497Z,43.00
2023-06-03T09:13:00.353Z,43.90
2023-06-03T09:18:02.824Z,42.00
2023-06-03T09:23:05.999Z,42.40
2023-06-03T09:28:08.253Z,43.20
2023-06-03T09:33:11.051Z,38.60
2023-06-03T09:38:13.369Z,38.30
2023-06-03T09:43:16.016Z,38.60
2023-06-03T09:48:25.778Z,39.20
2023-06-03T09:53:28.137Z,40.00
2023-06-03T09:58:30.622Z,39.20
2023-06-03T10:03:33.942Z,35.30
2023-06-03T10:08:36.417Z,34.00
2023-06-03T10:13:38.795Z,34.30
2023-06-03T10:18:42.674Z,32.60
2023-06-03T10:23:45.381Z,32.10
2023-06-03T10:28:49.622Z,29.60
2023-06-03T10:33:53.084Z,28.70
2023-06-03T10:38:57.085Z,29.80
2023-06-03T10:43:59.529Z,28.20
2023-06-03T10:49:05.607Z,28.80
2023-06-03T10:54:21.131Z,28.50
2023-06-03T10:59:28.949Z,28.90
2023-06-03T11:04:33.490Z,28.10
2023-06-03T11:09:40.581Z,29.00
2023-06-03T11:14:51.809Z,26.30
2023-06-03T11:19:56.976Z,26.90
2023-06-03T11:25:00.887Z,27.80
2023-06-03T11:30:07.357Z,26.10
2023-06-03T11:35:09.649Z,26.20
2023-06-03T11:40:18.483Z,27.00
2023-06-03T11:45:26.158Z,26.50
2023-06-03T11:50:30.559Z,26.90
2023-06-03T11:55:36.358Z,25.10
2023-06-03T12:00:39.229Z,23.60
2023-06-03T12:05:57.152Z,23.30
2023-06-03T12:10:59.603Z,23.80
2023-06-03T12:16:02.027Z,23.30
2023-06-03T12:21:23.445Z,24.00
2023-06-03T12:26:28.908Z,22.90
2023-06-03T12:31:31.320Z,21.10
2023-06-03T12:36:47.550Z,20.20
2023-06-03T12:41:54.487Z,20.30
2023-06-03T12:47:04.276Z,19.50
2023-06-03T12:52:25.485Z,18.80
2023-06-03T12:57:27.757Z,18.70
2023-06-03T13:02:30.097Z,17.60
2023-06-03T13:07:35.393Z,18.00
2023-06-03T13:12:38.778Z,17.70
2023-06-03T13:17:41.337Z,17.00
2023-06-03T13:22:43.736Z,16.40
2023-06-03T13:27:46.049Z,16.60
2023-06-03T13:32:48.549Z,16.20
2023-06-03T13:37:50.917Z,16.10
2023-06-03T13:42:53.179Z,15.10
2023-06-03T13:47:55.643Z,13.40
2023-06-03T13:52:58.120Z,13.70
2023-06-03T13:58:00.441Z,13.50
2023-06-03T14:03:03.653Z,14.20
2023-06-03T14:08:06.076Z,14.80
2023-06-03T14:13:08.413Z,14.00
2023-06-03T14:18:10.727Z,13.80
2023-06-03T14:23:14.378Z,13.00
2023-06-03T14:28:16.922Z,13.50
2023-06-03T14:33:19.447Z,12.20
2023-06-03T14:38:23.083Z,13.30
2023-06-03T14:43:26.251Z,12.60
2023-06-03T14:48:28.642Z,12.70
2023-06-03T14:53:31.912Z,12.50
2023-06-03T14:58:34.328Z,12.70
2023-06-03T15:03:36.760Z,12.30
2023-06-03T15:08:39.077Z,12.10
2023-06-03T15:13:41.415Z,12.60
2023-06-03T15:18:43.889Z,13.10
2023-06-03T15:23:47.273Z,13.00
2023-06-03T15:28:49.689Z,13.20
2023-06-03T15:33:52.062Z,13.00
2023-06-03T15:38:54.422Z,12.50
2023-06-03T15:43:57.246Z,13.80
2023-06-03T15:48:59.590Z,13.50
2023-06-03T15:54:01.991Z,14.30
2023-06-03T15:59:04.337Z,12.40
2023-06-03T16:04:06.801Z,13.50
2023-06-03T16:09:09.688Z,13.20
2023-06-03T16:14:12.026Z,12.90
2023-06-03T16:19:14.394Z,12.20
2023-06-03T16:24:17.728Z,12.60
2023-06-03T16:29:20.146Z,12.80
2023-06-03T16:34:24.044Z,12.90
2023-06-03T16:39:26.460Z,13.50
2023-06-03T16:44:29.217Z,13.20
2023-06-03T16:49:31.582Z,13.60
2023-06-03T16:54:33.975Z,14.80
2023-06-03T16:59:36.504Z,14.60
2023-06-03T17:04:40.159Z,15.30
2023-06-03T17:09:42.516Z,15.00
2023-06-03T17:14:44.846Z,14.80
2023-06-03T17:19:47.219Z,15.10
2023-06-03T17:24:49.568Z,16.00
2023-06-03T17:29:53.703Z,18.70
2023-06-03T17:34:56.088Z,21.60
2023-06-03T17:39:58.476Z,22.50
2023-06-03T17:45:01.433Z,23.80
2023-06-03T17:50:03.993Z,24.60
2023-06-03T17:55:06.664Z,25.90
2023-06-03T18:00:09.777Z,26.40
2023-06-03T18:05:15.060Z,27.20
2023-06-03T18:10:17.540Z,27.60
2023-06-03T18:15:19.907Z,28.20
2023-06-03T18:20:22.365Z,29.40
2023-06-03T18:25:24.791Z,29.70
2023-06-03T18:30:27.140Z,30.00
2023-06-03T18:35:29.548Z,32.10
2023-06-03T18:40:31.956Z,32.90
2023-06-03T18:45:34.639Z,33.70
2023-06-03T18:50:38.579Z,35.20
2023-06-03T18:55:41.706Z,35.20
2023-06-03T19:00:44.058Z,36.20
2023-06-03T19:05:46.400Z,37.90
2023-06-03T19:10:49.821Z,37.40
2023-06-03T19:15:53.254Z,37.90
2023-06-03T19:20:55.757Z,39.20
2023-06-03T19:25:58.128Z,39.90
2023-06-03T19:31:00.640Z,40.80
2023-06-03T19:36:03.078Z,42.00
2023-06-03T19:41:05.452Z,44.60
2023-06-03T19:46:08.520Z,45.50
2023-06-03T19:51:11.062Z,46.20
2023-06-03T19:56:13.564Z,47.50
2023-06-03T20:01:16.189Z,48.20
2023-06-03T20:06:19.059Z,49.00
2023-06-03T20:11:21.368Z,49.40
2023-06-03T20:16:23.790Z,50.20
2023-06-03T20:21:26.231Z,50.40
2023-06-03T20:26:28.819Z,51.10
2023-06-03T20:31:31.234Z,51.80
2023-06-03T20:36:33.840Z,52.70
2023-06-03T20:41:36.425Z,53.30
2023-06-03T20:46:39.142Z,53.70
2023-06-03T20:51:42.032Z,54.90
2023-06-03T20:56:44.679Z,54.60
2023-06-03T21:01:47.053Z,55.80
2023-06-03T21:06:49.440Z,56.20
2023-06-03T21:11:51.861Z,56.20
2023-06-03T21:16:54.216Z,56.60
2023-06-03T21:21:56.691Z,57.60
2023-06-03T21:26:59.367Z,58.50
2023-06-03T21:32:02.135Z,59.20
2023-06-03T21:37:07.440Z,59.90
2023-06-03T21:42:09.828Z,60.30
2023-06-03T21:47:12.822Z,61.20
2023-06-03T21:52:15.429Z,61.90
2023-06-03T21:57:17.766Z,62.30
2023-06-03T22:02:20.176Z,62.50
2023-06-03T22:07:22.489Z,64.20
2023-06-03T22:12:24.853Z,64.00
2023-06-03T22:17:27.363Z,65.30
2023-06-03T22:22:29.667Z,66.10
2023-06-03T22:27:32.020Z,66.70
2023-06-03T22:32:34.403Z,67.00
2023-06-03T22:37:36.769Z,67.40
2023-06-03T22:42:39.082Z,67.70
2023-06-03T22:47:42.047Z,68.80
2023-06-03T22:52:44.621Z,68.20
2023-06-03T22:57:46.952Z,69.20
2023-06-03T23:02:49.385Z,70.00
2023-06-03T23:07:52.976Z,71.50
2023-06-03T23:12:55.353Z,72.20
2023-06-03T23:17:57.782Z,72.40
2023-06-03T23:23:00.324Z,72.80
2023-06-03T23:28:03.300Z,70.80
2023-06-03T23:33:06.720Z,72.70
2023-06-03T23:38:10.996Z,73.20
2023-06-03T23:43:13.363Z,72.50
2023-06-03T23:48:16.059Z,71.90
2023-06-03T23:53:19.170Z,72.50
2023-06-03T23:58:21.603Z,73.20
